createdAt,value
2023-05-03T00:01:00.957Z,1.60
2023-05-03T00:03:29.163Z,1.75
2023-05-03T00:05:55.800Z,1.75
2023-05-03T00:08:22.688Z,1.60
2023-05-03T00:10:49.545Z,1.70
2023-05-03T00:13:16.241Z,1.38
2023-05-03T00:15:42.866Z,1.58
2023-05-03T00:18:10.900Z,1.30
2023-05-03T00:20:37.835Z,1.65
2023-05-03T00:23:04.624Z,1.50
2023-05-03T00:25:31.309Z,1.83
2023-05-03T00:27:58.153Z,1.70
2023-05-03T00:30:25.588Z,1.42
2023-05-03T00:32:52.291Z,1.33
2023-05-03T00:35:19.207Z,1.23
2023-05-03T00:37:46.051Z,1.48
2023-05-03T00:40:13.430Z,1.42
2023-05-03T00:42:40.137Z,1.17
2023-05-03T00:45:07.370Z,1.38
2023-05-03T00:47:34.051Z,1.60
2023-05-03T00:50:01.512Z,1.70
2023-05-03T00:52:29.888Z,1.38
2023-05-03T00:55:00.298Z,1.38
2023-05-03T00:57:28.488Z,1.70
2023-05-03T00:59:57.053Z,1.60
2023-05-03T01:02:24.865Z,1.60
2023-05-03T01:04:53.481Z,1.30
2023-05-03T01:07:35.783Z,1.40
2023-05-03T01:10:21.489Z,1.50
2023-05-03T01:13:14.700Z,1.92
2023-05-03T01:15:53.217Z,1.50
2023-05-03T01:18:30.631Z,2.00
2023-05-03T01:21:00.301Z,2.10
2023-05-03T01:23:33.795Z,2.22
2023-05-03T01:26:24.750Z,2.35
2023-05-03T01:28:51.737Z,2.03
2023-05-03T01:31:24.134Z,1.65
2023-05-03T01:34:25.847Z,2.20
2023-05-03T01:36:57.343Z,1.90
2023-05-03T01:39:26.708Z,1.90
2023-05-03T01:41:54.702Z,1.50
2023-05-03T01:44:23.568Z,1.70
2023-05-03T01:46:50.209Z,2.33
2023-05-03T01:49:16.896Z,1.77
2023-05-03T01:51:43.815Z,1.63
2023-05-03T01:54:11.292Z,1.73
2023-05-03T01:56:38.175Z,1.45
2023-05-03T01:59:05.260Z,1.58
2023-05-03T02:01:32.088Z,1.83
2023-05-03T02:03:58.857Z,1.48
2023-05-03T02:06:26.303Z,1.95
2023-05-03T02:08:54.389Z,1.48
2023-05-03T02:11:21.632Z,1.92
2023-05-03T02:13:52.915Z,1.45
2023-05-03T02:16:19.689Z,1.40
2023-05-03T02:18:46.842Z,1.58
2023-05-03T02:21:14.115Z,1.42
2023-05-03T02:23:40.827Z,1.55
2023-05-03T02:26:08.550Z,1.60
2023-05-03T02:28:35.276Z,1.85
2023-05-03T02:31:03.198Z,1.60
2023-05-03T02:33:29.983Z,1.30
2023-05-03T02:35:56.707Z,1.65
2023-05-03T02:38:23.554Z,1.60
2023-05-03T02:40:51.133Z,1.50
2023-05-03T02:43:17.824Z,1.60
2023-05-03T02:45:45.309Z,1.35
2023-05-03T02:48:12.756Z,1.50
2023-05-03T02:50:40.493Z,1.55
2023-05-03T02:53:08.100Z,1.58
2023-05-03T02:55:35.417Z,1.65
2023-05-03T02:58:02.697Z,1.60
2023-05-03T03:00:32.392Z,1.55
2023-05-03T03:02:59.551Z,1.95
2023-05-03T03:05:26.872Z,1.48
2023-05-03T03:07:54.801Z,1.90
2023-05-03T03:10:21.449Z,1.73
2023-05-03T03:12:48.878Z,1.60
2023-05-03T03:17:51.781Z,1.65
2023-05-03T03:20:18.549Z,1.98
2023-05-03T03:22:47.564Z,2.17
2023-05-03T03:25:14.239Z,1.70
2023-05-03T03:27:40.968Z,2.35
2023-05-03T03:30:09.385Z,2.55
2023-05-03T03:35:15.580Z,2.00
2023-05-03T03:37:43.088Z,1.80
2023-05-03T03:40:10.697Z,1.45
2023-05-03T03:42:39.876Z,1.90
2023-05-03T03:45:07.287Z,1.67
2023-05-03T03:47:34.024Z,2.13
2023-05-03T03:50:02.248Z,1.63
2023-05-03T03:52:31.077Z,1.80
2023-05-03T03:54:57.767Z,1.40
2023-05-03T03:57:26.145Z,1.90
2023-05-03T03:59:52.973Z,1.65
2023-05-03T04:02:19.880Z,1.65
2023-05-03T04:04:46.809Z,1.67
2023-05-03T04:07:19.308Z,1.83
2023-05-03T04:09:46.545Z,1.73
2023-05-03T04:12:14.205Z,2.25
2023-05-03T04:14:42.681Z,2.03
2023-05-03T04:17:09.539Z,2.08
2023-05-03T04:19:38.582Z,1.73
2023-05-03T04:22:06.482Z,2.42
2023-05-03T04:24:33.111Z,2.22
2023-05-03T04:27:04.270Z,2.10
2023-05-03T04:29:32.430Z,2.38
2023-05-03T04:32:01.332Z,2.33
2023-05-03T04:34:31.111Z,1.88
2023-05-03T04:36:58.070Z,2.63
2023-05-03T04:39:25.128Z,3.45
2023-05-03T04:41:53.099Z,2.95
2023-05-03T04:44:20.912Z,2.50
2023-05-03T04:46:51.049Z,2.45
2023-05-03T04:49:18.348Z,2.22
2023-05-03T04:51:45.056Z,1.65
2023-05-03T04:54:12.016Z,1.90
2023-05-03T04:56:39.039Z,1.58
2023-05-03T04:59:16.369Z,2.28
2023-05-03T05:01:43.486Z,1.92
2023-05-03T05:04:11.081Z,1.38
2023-05-03T05:06:42.931Z,1.95
2023-05-03T05:09:22.456Z,2.17
2023-05-03T05:11:50.833Z,1.58
2023-05-03T05:14:37.460Z,2.10
2023-05-03T05:17:05.780Z,1.48
2023-05-03T05:19:32.575Z,1.90
2023-05-03T05:22:06.901Z,2.05
2023-05-03T05:24:41.990Z,1.40
2023-05-03T05:27:18.464Z,1.65
2023-05-03T05:29:45.225Z,2.28
2023-05-03T05:32:12.872Z,2.47
2023-05-03T05:34:45.066Z,2.17
2023-05-03T05:37:16.444Z,2.90
2023-05-03T05:39:44.349Z,5.53
2023-05-03T05:42:14.077Z,4.80
2023-05-03T05:44:40.820Z,3.63
2023-05-03T05:47:09.052Z,4.40
2023-05-03T05:49:36.366Z,5.88
2023-05-03T05:52:04.123Z,3.50
2023-05-03T05:54:30.851Z,4.05
2023-05-03T05:56:59.627Z,3.17
2023-05-03T05:59:31.432Z,4.43
2023-05-03T06:02:13.352Z,2.60
2023-05-03T06:04:40.306Z,2.33
2023-05-03T06:07:16.859Z,2.15
2023-05-03T06:09:49.927Z,2.22
2023-05-03T06:12:16.798Z,2.00
2023-05-03T06:15:01.435Z,1.80
2023-05-03T06:17:36.563Z,1.83
2023-05-03T06:20:06.360Z,2.00
2023-05-03T06:22:33.448Z,1.20
2023-05-03T06:25:04.126Z,1.20
2023-05-03T06:27:31.778Z,1.60
2023-05-03T06:30:00.949Z,1.20
2023-05-03T06:32:28.937Z,1.20
2023-05-03T06:34:55.857Z,1.48
2023-05-03T06:37:22.992Z,1.55
2023-05-03T06:39:50.557Z,1.50
2023-05-03T06:42:19.117Z,1.13
2023-05-03T06:44:46.458Z,0.80
2023-05-03T06:47:13.446Z,1.20
2023-05-03T06:49:43.421Z,1.30
2023-05-03T06:52:11.824Z,1.15
2023-05-03T06:54:38.765Z,1.30
2023-05-03T06:57:05.514Z,0.80
2023-05-03T06:59:32.135Z,1.73
2023-05-03T07:01:58.908Z,1.38
2023-05-03T07:04:25.674Z,1.77
2023-05-03T07:06:56.498Z,2.13
2023-05-03T07:09:35.271Z,0.90
2023-05-03T07:12:08.975Z,1.77
2023-05-03T07:14:42.214Z,1.10
2023-05-03T07:17:09.628Z,1.80
2023-05-03T07:19:37.554Z,1.77
2023-05-03T07:22:06.784Z,3.60
2023-05-03T07:24:33.908Z,1.55
2023-05-03T07:27:03.946Z,2.28
2023-05-03T07:29:30.861Z,1.65
2023-05-03T07:31:58.007Z,2.92
2023-05-03T07:34:25.205Z,1.05
2023-05-03T07:36:55.092Z,1.13
2023-05-03T07:39:24.915Z,0.88
2023-05-03T07:41:54.303Z,1.50
2023-05-03T07:44:27.647Z,1.35
2023-05-03T07:46:58.649Z,1.27
2023-05-03T07:49:26.210Z,1.42
2023-05-03T07:51:53.099Z,1.38
2023-05-03T07:54:26.370Z,1.52
2023-05-03T07:56:55.770Z,1.50
2023-05-03T07:59:25.223Z,1.27
2023-05-03T08:01:52.678Z,1.48
2023-05-03T08:04:19.974Z,1.85
2023-05-03T08:06:56.193Z,1.02
2023-05-03T08:09:25.362Z,1.42
2023-05-03T08:11:52.524Z,1.60
2023-05-03T08:14:24.857Z,1.20
2023-05-03T08:16:55.024Z,1.48
2023-05-03T08:19:22.040Z,1.10
2023-05-03T08:21:57.153Z,1.50
2023-05-03T08:24:29.912Z,1.20
2023-05-03T08:26:57.183Z,1.15
2023-05-03T08:29:25.707Z,1.83
2023-05-03T08:31:54.733Z,2.25
2023-05-03T08:34:21.613Z,1.23
2023-05-03T08:36:48.508Z,1.98
2023-05-03T08:39:15.526Z,1.70
2023-05-03T08:41:43.119Z,1.70
2023-05-03T08:44:12.889Z,1.42
2023-05-03T08:46:43.413Z,1.52
2023-05-03T08:49:12.752Z,1.80
2023-05-03T08:51:47.356Z,1.70
2023-05-03T08:54:15.789Z,1.45
2023-05-03T08:56:43.866Z,1.42
2023-05-03T08:59:11.772Z,1.73
2023-05-03T09:01:43.353Z,1.73
2023-05-03T09:04:11.612Z,1.40
2023-05-03T09:06:39.743Z,1.33
2023-05-03T09:09:09.700Z,1.27
2023-05-03T09:11:41.499Z,1.48
2023-05-03T09:14:18.985Z,1.33
2023-05-03T09:16:49.535Z,1.40
2023-05-03T09:19:17.221Z,1.27
2023-05-03T09:21:47.428Z,1.13
2023-05-03T09:24:15.513Z,1.70
2023-05-03T09:26:43.525Z,1.48
2023-05-03T09:29:10.871Z,1.40
2023-05-03T09:31:58.572Z,1.58
2023-05-03T09:34:25.611Z,2.20
2023-05-03T09:36:52.692Z,2.13
2023-05-03T09:39:20.174Z,1.75
2023-05-03T09:41:47.838Z,1.63
2023-05-03T09:44:14.810Z,1.50
2023-05-03T09:47:04.021Z,1.88
2023-05-03T09:49:34.270Z,1.75
2023-05-03T09:52:02.663Z,2.03
2023-05-03T09:54:35.480Z,1.98
2023-05-03T09:57:07.205Z,1.50
2023-05-03T09:59:35.490Z,1.75
2023-05-03T10:02:07.775Z,1.73
2023-05-03T10:04:52.479Z,1.77
2023-05-03T10:07:33.850Z,1.80
2023-05-03T10:10:01.538Z,1.52
2023-05-03T10:12:29.281Z,1.83
2023-05-03T10:14:59.917Z,1.35
2023-05-03T10:17:47.677Z,1.65
2023-05-03T10:20:34.782Z,1.23
2023-05-03T10:23:08.136Z,1.38
2023-05-03T10:26:02.346Z,1.38
2023-05-03T10:28:51.176Z,1.33
2023-05-03T10:31:51.809Z,1.52
2023-05-03T10:34:26.295Z,1.77
2023-05-03T10:39:56.320Z,1.40
2023-05-03T10:42:38.165Z,1.33
2023-05-03T10:45:09.365Z,1.60
2023-05-03T10:47:41.044Z,1.50
2023-05-03T10:50:24.413Z,1.58
2023-05-03T10:52:59.317Z,1.58
2023-05-03T10:55:32.291Z,2.05
2023-05-03T10:58:16.940Z,1.65
2023-05-03T11:00:47.112Z,1.50
2023-05-03T11:03:35.707Z,1.63
2023-05-03T11:06:03.441Z,1.67
2023-05-03T11:08:38.782Z,1.60
2023-05-03T11:11:09.833Z,2.10
2023-05-03T11:13:37.293Z,1.52
2023-05-03T11:16:06.087Z,1.60
2023-05-03T11:18:33.638Z,1.25
2023-05-03T11:21:00.466Z,1.35
2023-05-03T11:23:29.807Z,1.60
2023-05-03T11:26:00.286Z,1.98
2023-05-03T11:28:27.066Z,1.38
2023-05-03T11:30:54.818Z,1.15
2023-05-03T11:33:27.710Z,1.42
2023-05-03T11:35:56.232Z,1.40
2023-05-03T11:38:22.917Z,1.70
2023-05-03T11:40:49.948Z,1.63
2023-05-03T11:43:17.097Z,1.48
2023-05-03T11:45:45.977Z,1.80
2023-05-03T11:48:13.774Z,1.77
2023-05-03T11:50:57.222Z,1.50
2023-05-03T11:53:25.713Z,2.92
2023-05-03T11:55:53.999Z,1.77
2023-05-03T11:58:26.700Z,1.63
2023-05-03T12:00:57.651Z,1.80
2023-05-03T12:03:30.909Z,1.30
2023-05-03T12:06:00.593Z,2.03
2023-05-03T12:08:32.040Z,1.80
2023-05-03T12:11:06.623Z,1.30
2023-05-03T12:13:41.372Z,1.63
2023-05-03T12:16:19.194Z,1.88
2023-05-03T12:19:01.943Z,1.70
2023-05-03T12:21:54.077Z,1.63
2023-05-03T12:24:28.666Z,1.20
2023-05-03T12:26:57.306Z,1.38
2023-05-03T12:29:24.811Z,1.73
2023-05-03T12:31:53.879Z,1.52
2023-05-03T12:34:33.751Z,1.40
2023-05-03T12:37:04.853Z,1.77
2023-05-03T12:39:32.978Z,1.80
2023-05-03T12:44:34.360Z,1.90
2023-05-03T12:47:02.338Z,1.60
2023-05-03T12:49:45.774Z,1.85
2023-05-03T12:52:36.210Z,1.83
2023-05-03T12:55:03.009Z,2.03
2023-05-03T12:57:31.305Z,1.80
2023-05-03T13:00:02.788Z,2.85
2023-05-03T13:05:01.459Z,1.88
2023-05-03T13:07:31.640Z,2.40
2023-05-03T13:12:30.881Z,1.92
2023-05-03T13:14:58.122Z,1.77
2023-05-03T13:17:25.052Z,2.40
2023-05-03T13:19:53.291Z,2.42
2023-05-03T13:22:20.052Z,1.67
2023-05-03T13:24:48.035Z,2.42
2023-05-03T13:27:15.904Z,2.10
2023-05-03T13:29:42.613Z,1.98
2023-05-03T13:32:09.793Z,2.10
2023-05-03T13:34:36.798Z,2.97
2023-05-03T13:37:04.626Z,2.13
2023-05-03T13:39:32.067Z,2.22
2023-05-03T13:41:59.236Z,1.70
2023-05-03T13:44:26.193Z,2.60
2023-05-03T13:46:53.626Z,1.73
2023-05-03T13:49:20.890Z,2.17
2023-05-03T13:51:50.367Z,2.17
2023-05-03T13:54:17.040Z,2.30
2023-05-03T13:56:43.955Z,2.47
2023-05-03T13:59:13.845Z,2.63
2023-05-03T14:01:41.236Z,2.40
2023-05-03T14:04:08.353Z,2.50
2023-05-03T14:06:35.171Z,2.50
2023-05-03T14:09:02.841Z,2.33
2023-05-03T14:11:30.876Z,2.60
2023-05-03T14:13:58.729Z,3.33
2023-05-03T14:18:56.945Z,2.47
2023-05-03T14:21:23.668Z,2.47
2023-05-03T14:23:51.119Z,2.38
2023-05-03T14:26:19.464Z,2.47
2023-05-03T14:28:47.136Z,2.88
2023-05-03T14:31:13.936Z,2.95
2023-05-03T14:33:40.599Z,2.88
2023-05-03T14:36:10.788Z,2.83
2023-05-03T14:38:37.684Z,2.40
2023-05-03T14:41:04.853Z,2.67
2023-05-03T14:43:32.529Z,2.72
2023-05-03T14:45:59.344Z,2.13
2023-05-03T14:48:26.195Z,2.20
2023-05-03T14:50:54.287Z,2.83
2023-05-03T14:53:21.866Z,3.05
2023-05-03T14:55:48.636Z,3.03
2023-05-03T14:58:15.884Z,3.28
2023-05-03T15:00:43.423Z,3.10
2023-05-03T15:03:12.345Z,3.45
2023-05-03T15:05:45.326Z,3.60
2023-05-03T15:08:14.525Z,3.08
2023-05-03T15:10:42.610Z,3.40
2023-05-03T15:13:10.240Z,3.20
2023-05-03T15:15:40.874Z,3.22
2023-05-03T15:18:09.205Z,2.80
2023-05-03T15:20:36.283Z,3.75
2023-05-03T15:23:06.325Z,2.47
2023-05-03T15:25:33.158Z,3.20
2023-05-03T15:28:03.653Z,3.80
2023-05-03T15:30:32.308Z,3.08
2023-05-03T15:32:59.205Z,2.75
2023-05-03T15:35:26.181Z,2.58
2023-05-03T15:37:52.874Z,2.50
2023-05-03T15:40:20.537Z,2.65
2023-05-03T15:45:38.251Z,2.70
2023-05-03T15:48:05.254Z,3.10
2023-05-03T15:50:32.070Z,3.17
2023-05-03T15:52:58.969Z,3.10
2023-05-03T15:55:26.718Z,3.25
2023-05-03T15:57:53.451Z,3.00
2023-05-03T16:00:23.014Z,2.83
2023-05-03T16:02:49.810Z,3.10
2023-05-03T16:05:17.761Z,2.80
2023-05-03T16:07:44.754Z,3.00
2023-05-03T16:10:11.478Z,2.88
2023-05-03T16:12:38.184Z,3.28
2023-05-03T16:15:05.654Z,2.53
2023-05-03T16:17:35.306Z,2.72
2023-05-03T16:20:05.540Z,3.05
2023-05-03T16:22:32.501Z,2.63
2023-05-03T16:24:59.163Z,3.33
2023-05-03T16:27:25.769Z,2.42
2023-05-03T16:29:55.316Z,2.97
2023-05-03T16:32:22.320Z,2.60
2023-05-03T16:34:56.828Z,2.95
2023-05-03T16:37:26.554Z,2.92
2023-05-03T16:39:53.677Z,4.00
2023-05-03T16:42:20.509Z,3.25
2023-05-03T16:44:47.684Z,2.45
2023-05-03T16:47:17.679Z,2.88
2023-05-03T16:49:47.387Z,3.00
2023-05-03T16:52:14.033Z,2.67
2023-05-03T16:54:42.933Z,2.55
2023-05-03T16:57:09.630Z,2.65
2023-05-03T16:59:38.209Z,2.83
2023-05-03T17:02:04.966Z,3.03
2023-05-03T17:04:31.981Z,2.85
2023-05-03T17:06:58.952Z,3.45
2023-05-03T17:09:27.266Z,3.65
2023-05-03T17:11:57.949Z,3.63
2023-05-03T17:14:25.315Z,3.70
2023-05-03T17:16:52.593Z,4.40
2023-05-03T17:19:19.489Z,4.20
2023-05-03T17:21:46.952Z,3.85
2023-05-03T17:24:13.594Z,4.22
2023-05-03T17:26:40.287Z,2.97
2023-05-03T17:29:07.746Z,4.00
2023-05-03T17:31:34.474Z,3.55
2023-05-03T17:34:01.186Z,3.42
2023-05-03T17:36:29.239Z,3.38
2023-05-03T17:38:56.100Z,3.95
2023-05-03T17:41:22.745Z,3.58
2023-05-03T17:43:50.350Z,3.80
2023-05-03T17:46:20.283Z,3.50
2023-05-03T17:48:48.523Z,3.20
2023-05-03T17:51:15.758Z,2.40
2023-05-03T17:53:43.063Z,2.92
2023-05-03T17:56:19.750Z,3.45
2023-05-03T17:58:56.901Z,3.03
2023-05-03T18:01:27.611Z,3.05
2023-05-03T18:04:02.124Z,3.40
2023-05-03T18:06:29.521Z,2.95
2023-05-03T18:08:56.363Z,3.47
2023-05-03T18:11:23.181Z,2.78
2023-05-03T18:13:49.853Z,3.58
2023-05-03T18:16:17.059Z,3.70
2023-05-03T18:18:43.898Z,3.10
2023-05-03T18:21:16.579Z,2.78
2023-05-03T18:24:01.277Z,2.50
2023-05-03T18:26:31.295Z,3.00
2023-05-03T18:29:00.419Z,3.70
2023-05-03T18:31:27.506Z,3.03
2023-05-03T18:33:56.541Z,3.28
2023-05-03T18:36:27.853Z,3.30
2023-05-03T18:38:54.754Z,3.05
2023-05-03T18:41:24.978Z,2.83
2023-05-03T18:43:54.662Z,3.00
2023-05-03T18:46:22.214Z,2.60
2023-05-03T18:48:49.841Z,2.92
2023-05-03T18:51:16.632Z,2.67
2023-05-03T18:53:43.788Z,2.92
2023-05-03T18:56:10.886Z,2.53
2023-05-03T18:58:40.197Z,2.70
2023-05-03T19:01:07.152Z,2.80
2023-05-03T19:03:34.182Z,2.80
2023-05-03T19:06:07.575Z,2.65
2023-05-03T19:08:34.692Z,3.13
2023-05-03T19:11:13.418Z,2.80
2023-05-03T19:13:48.696Z,2.58
2023-05-03T19:16:21.096Z,3.40
2023-05-03T19:18:53.291Z,3.72
2023-05-03T19:21:23.144Z,3.20
2023-05-03T19:23:50.155Z,3.15
2023-05-03T19:26:17.206Z,3.13
2023-05-03T19:28:44.101Z,3.58
2023-05-03T19:31:15.108Z,2.63
2023-05-03T19:33:42.061Z,3.10
2023-05-03T19:36:12.545Z,3.10
2023-05-03T19:38:39.343Z,2.85
2023-05-03T19:41:11.661Z,3.10
2023-05-03T19:43:39.417Z,3.15
2023-05-03T19:46:06.770Z,3.08
2023-05-03T19:48:34.319Z,3.20
2023-05-03T19:51:13.224Z,3.17
2023-05-03T19:53:40.303Z,2.70
2023-05-03T19:56:09.445Z,2.83
2023-05-03T19:58:38.382Z,2.75
2023-05-03T20:01:05.088Z,2.80
2023-05-03T20:03:34.453Z,2.45
2023-05-03T20:06:13.644Z,2.75
2023-05-03T20:08:43.477Z,2.92
2023-05-03T20:11:10.045Z,2.92
2023-05-03T20:13:36.874Z,2.63
2023-05-03T20:16:06.156Z,2.67
2023-05-03T20:18:35.609Z,3.13
2023-05-03T20:21:05.615Z,2.90
2023-05-03T20:23:37.827Z,2.72
2023-05-03T20:26:04.719Z,3.25
2023-05-03T20:28:34.987Z,2.72
2023-05-03T20:31:02.002Z,2.65
2023-05-03T20:33:31.315Z,2.78
2023-05-03T20:35:58.359Z,2.10
2023-05-03T20:38:25.154Z,2.40
2023-05-03T20:40:51.986Z,2.55
2023-05-03T20:46:30.946Z,2.13
2023-05-03T20:49:09.786Z,2.67
2023-05-03T20:51:39.329Z,2.58
2023-05-03T20:54:10.630Z,2.33
2023-05-03T20:56:46.940Z,2.55
2023-05-03T20:59:19.708Z,2.28
2023-05-03T21:01:46.709Z,2.40
2023-05-03T21:04:13.645Z,2.00
2023-05-03T21:06:44.882Z,2.22
2023-05-03T21:09:14.940Z,2.42
2023-05-03T21:11:44.255Z,2.42
2023-05-03T21:14:14.901Z,1.55
2023-05-03T21:16:41.757Z,1.88
2023-05-03T21:19:11.327Z,2.08
2023-05-03T21:21:40.444Z,2.10
2023-05-03T21:24:09.552Z,2.00
2023-05-03T21:26:36.312Z,2.33
2023-05-03T21:29:03.091Z,1.77
2023-05-03T21:31:29.845Z,2.33
2023-05-03T21:33:58.172Z,1.90
2023-05-03T21:36:25.233Z,2.05
2023-05-03T21:38:52.978Z,2.22
2023-05-03T21:41:19.936Z,1.70
2023-05-03T21:43:46.858Z,1.90
2023-05-03T21:46:14.042Z,1.60
2023-05-03T21:48:41.185Z,2.13
2023-05-03T21:51:08.594Z,1.90
2023-05-03T21:53:35.674Z,1.52
2023-05-03T21:56:02.714Z,1.63
2023-05-03T21:58:29.646Z,1.88
2023-05-03T22:00:56.484Z,1.83
2023-05-03T22:03:25.519Z,1.95
2023-05-03T22:05:52.782Z,1.83
2023-05-03T22:08:20.952Z,2.83
2023-05-03T22:10:47.880Z,2.08
2023-05-03T22:13:18.135Z,1.70
2023-05-03T22:15:48.233Z,1.90
2023-05-03T22:18:16.610Z,1.90
2023-05-03T22:20:46.935Z,1.65
2023-05-03T22:23:15.667Z,1.80
2023-05-03T22:25:43.086Z,2.10
2023-05-03T22:28:19.215Z,1.92
2023-05-03T22:30:59.044Z,2.25
2023-05-03T22:33:26.167Z,1.88
2023-05-03T22:35:57.358Z,1.92
2023-05-03T22:38:24.427Z,1.88
2023-05-03T22:40:51.440Z,2.15
2023-05-03T22:43:19.587Z,2.50
2023-05-03T22:45:51.173Z,1.98
2023-05-03T22:48:21.470Z,1.50
2023-05-03T22:51:04.566Z,2.10
2023-05-03T22:53:58.632Z,2.00
2023-05-03T22:56:32.447Z,2.00
2023-05-03T22:59:08.325Z,1.90
2023-05-03T23:01:38.978Z,2.22
2023-05-03T23:04:08.381Z,1.95
2023-05-03T23:06:40.821Z,2.35
2023-05-03T23:09:09.921Z,2.15
2023-05-03T23:11:37.484Z,2.10
2023-05-03T23:14:20.329Z,2.13
2023-05-03T23:16:51.605Z,2.28
2023-05-03T23:19:18.745Z,2.38
2023-05-03T23:21:45.737Z,2.53
2023-05-03T23:24:12.980Z,2.55
2023-05-03T23:26:40.443Z,2.33
2023-05-03T23:29:11.024Z,2.03
2023-05-03T23:31:38.716Z,2.20
2023-05-03T23:34:14.248Z,2.08
2023-05-03T23:36:41.081Z,2.20
2023-05-03T23:39:07.909Z,2.40
2023-05-03T23:41:44.109Z,2.25
2023-05-03T23:44:10.955Z,2.80
2023-05-03T23:47:04.026Z,2.40
2023-05-03T23:49:44.031Z,3.05
2023-05-03T23:52:11.098Z,2.38
2023-05-03T23:54:50.549Z,2.72
2023-05-03T23:57:26.529Z,2.60
2023-05-03T23:59:56.307Z,2.70
